sensor_id;sensor_type;location;lat;lon;timestamp;P1;durP1;ratioP1;P2;durP2;ratioP2
37937;SDS011;23763;48.130;11.602;2023-07-09T00:00:03;11.25;;;10.15;;
37937;SDS011;23763;48.130;11.602;2023-07-09T00:02:36;12.93;;;10.88;;
37937;SDS011;23763;48.130;11.602;2023-07-09T00:05:01;11.90;;;10.80;;
37937;SDS011;23763;48.130;11.602;2023-07-09T00:07:29;11.05;;;9.95;;
37937;SDS011;23763;48.130;11.602;2023-07-09T00:09:57;11.60;;;9.85;;
37937;SDS011;23763;48.130;11.602;2023-07-09T00:12:23;10.93;;;9.93;;
37937;SDS011;23763;48.130;11.602;2023-07-09T00:14:49;10.70;;;9.77;;
37937;SDS011;23763;48.130;11.602;2023-07-09T00:19:50;12.00;;;10.80;;
37937;SDS011;23763;48.130;11.602;2023-07-09T00:22:16;11.30;;;9.88;;
37937;SDS011;23763;48.130;11.602;2023-07-09T00:24:44;11.40;;;10.23;;
37937;SDS011;23763;48.130;11.602;2023-07-09T00:27:12;11.30;;;9.90;;
37937;SDS011;23763;48.130;11.602;2023-07-09T00:29:41;11.57;;;10.48;;
37937;SDS011;23763;48.130;11.602;2023-07-09T00:32:15;11.80;;;10.60;;
37937;SDS011;23763;48.130;11.602;2023-07-09T00:34:45;11.52;;;10.38;;
37937;SDS011;23763;48.130;11.602;2023-07-09T00:37:17;11.32;;;10.18;;
37937;SDS011;23763;48.130;11.602;2023-07-09T00:39:46;11.35;;;10.32;;
37937;SDS011;23763;48.130;11.602;2023-07-09T00:42:13;13.55;;;12.15;;
37937;SDS011;23763;48.130;11.602;2023-07-09T00:44:42;12.20;;;10.90;;
37937;SDS011;23763;48.130;11.602;2023-07-09T00:47:53;11.75;;;10.55;;
37937;SDS011;23763;48.130;11.602;2023-07-09T00:50:20;11.18;;;10.05;;
37937;SDS011;23763;48.130;11.602;2023-07-09T00:52:51;11.52;;;9.98;;
37937;SDS011;23763;48.130;11.602;2023-07-09T00:55:26;12.77;;;10.13;;
37937;SDS011;23763;48.130;11.602;2023-07-09T00:57:56;10.43;;;9.52;;
37937;SDS011;23763;48.130;11.602;2023-07-09T01:00:50;13.68;;;10.27;;
37937;SDS011;23763;48.130;11.602;2023-07-09T01:03:24;10.57;;;9.55;;
37937;SDS011;23763;48.130;11.602;2023-07-09T01:05:58;10.70;;;9.73;;
37937;SDS011;23763;48.130;11.602;2023-07-09T01:08:24;11.40;;;10.18;;
37937;SDS011;23763;48.130;11.602;2023-07-09T01:10:52;10.73;;;9.73;;
37937;SDS011;23763;48.130;11.602;2023-07-09T01:13:17;10.63;;;9.63;;
37937;SDS011;23763;48.130;11.602;2023-07-09T01:15:45;11.70;;;10.52;;
37937;SDS011;23763;48.130;11.602;2023-07-09T01:18:12;11.35;;;10.25;;
37937;SDS011;23763;48.130;11.602;2023-07-09T01:20:39;13.55;;;10.63;;
37937;SDS011;23763;48.130;11.602;2023-07-09T01:23:06;11.82;;;10.40;;
37937;SDS011;23763;48.130;11.602;2023-07-09T01:25:32;11.60;;;10.60;;
37937;SDS011;23763;48.130;11.602;2023-07-09T01:27:58;11.82;;;10.60;;
37937;SDS011;23763;48.130;11.602;2023-07-09T01:30:27;11.77;;;9.80;;
37937;SDS011;23763;48.130;11.602;2023-07-09T01:32:57;10.50;;;9.63;;
37937;SDS011;23763;48.130;11.602;2023-07-09T01:35:26;10.50;;;9.50;;
37937;SDS011;23763;48.130;11.602;2023-07-09T01:37:53;12.20;;;11.00;;
37937;SDS011;23763;48.130;11.602;2023-07-09T01:40:20;11.15;;;9.77;;
37937;SDS011;23763;48.130;11.602;2023-07-09T01:42:48;11.88;;;9.85;;
37937;SDS011;23763;48.130;11.602;2023-07-09T01:45:14;11.15;;;10.18;;
37937;SDS011;23763;48.130;11.602;2023-07-09T01:47:41;13.00;;;10.18;;
37937;SDS011;23763;48.130;11.602;2023-07-09T01:50:09;10.73;;;9.75;;
37937;SDS011;23763;48.130;11.602;2023-07-09T01:52:36;11.40;;;10.30;;
37937;SDS011;23763;48.130;11.602;2023-07-09T01:55:03;11.23;;;10.10;;
37937;SDS011;23763;48.130;11.602;2023-07-09T01:57:29;10.60;;;9.60;;
37937;SDS011;23763;48.130;11.602;2023-07-09T02:00:01;11.40;;;10.02;;
37937;SDS011;23763;48.130;11.602;2023-07-09T02:02:36;11.43;;;10.35;;
37937;SDS011;23763;48.130;11.602;2023-07-09T02:05:03;13.80;;;10.55;;
37937;SDS011;23763;48.130;11.602;2023-07-09T02:07:30;10.52;;;9.73;;
37937;SDS011;23763;48.130;11.602;2023-07-09T02:09:56;11.95;;;9.90;;
37937;SDS011;23763;48.130;11.602;2023-07-09T02:12:22;11.00;;;10.02;;
37937;SDS011;23763;48.130;11.602;2023-07-09T02:14:48;10.43;;;9.43;;
37937;SDS011;23763;48.130;11.602;2023-07-09T02:17:14;10.30;;;9.35;;
37937;SDS011;23763;48.130;11.602;2023-07-09T02:19:40;10.23;;;9.32;;
37937;SDS011;23763;48.130;11.602;2023-07-09T02:22:06;10.68;;;9.60;;
37937;SDS011;23763;48.130;11.602;2023-07-09T02:24:32;11.18;;;9.80;;
37937;SDS011;23763;48.130;11.602;2023-07-09T02:26:59;10.65;;;9.65;;
37937;SDS011;23763;48.130;11.602;2023-07-09T02:29:26;10.55;;;9.65;;
37937;SDS011;23763;48.130;11.602;2023-07-09T02:31:54;10.52;;;9.52;;
37937;SDS011;23763;48.130;11.602;2023-07-09T02:34:21;10.15;;;8.95;;
37937;SDS011;23763;48.130;11.602;2023-07-09T02:36:50;10.60;;;9.27;;
37937;SDS011;23763;48.130;11.602;2023-07-09T02:39:17;9.90;;;9.10;;
37937;SDS011;23763;48.130;11.602;2023-07-09T02:41:42;10.70;;;9.60;;
37937;SDS011;23763;48.130;11.602;2023-07-09T02:44:08;10.20;;;9.13;;
37937;SDS011;23763;48.130;11.602;2023-07-09T02:46:34;11.02;;;10.13;;
37937;SDS011;23763;48.130;11.602;2023-07-09T02:49:02;13.10;;;9.35;;
37937;SDS011;23763;48.130;11.602;2023-07-09T02:51:29;10.48;;;9.50;;
37937;SDS011;23763;48.130;11.602;2023-07-09T02:53:55;10.52;;;9.73;;
37937;SDS011;23763;48.130;11.602;2023-07-09T02:56:22;12.63;;;9.00;;
37937;SDS011;23763;48.130;11.602;2023-07-09T02:58:49;10.07;;;9.05;;
37937;SDS011;23763;48.130;11.602;2023-07-09T03:01:15;10.02;;;9.05;;
37937;SDS011;23763;48.130;11.602;2023-07-09T03:03:40;10.68;;;9.23;;
37937;SDS011;23763;48.130;11.602;2023-07-09T03:06:06;10.38;;;9.38;;
37937;SDS011;23763;48.130;11.602;2023-07-09T03:08:32;10.18;;;9.20;;
37937;SDS011;23763;48.130;11.602;2023-07-09T03:10:57;10.50;;;9.50;;
37937;SDS011;23763;48.130;11.602;2023-07-09T03:13:23;12.07;;;9.45;;
37937;SDS011;23763;48.130;11.602;2023-07-09T03:15:58;9.68;;;8.82;;
37937;SDS011;23763;48.130;11.602;2023-07-09T03:18:24;9.88;;;8.98;;
37937;SDS011;23763;48.130;11.602;2023-07-09T03:20:50;10.40;;;9.45;;
37937;SDS011;23763;48.130;11.602;2023-07-09T03:23:16;10.85;;;9.77;;
37937;SDS011;23763;48.130;11.602;2023-07-09T03:25:42;10.82;;;9.27;;
37937;SDS011;23763;48.130;11.602;2023-07-09T03:28:10;9.85;;;9.05;;
37937;SDS011;23763;48.130;11.602;2023-07-09T03:30:40;10.60;;;9.07;;
37937;SDS011;23763;48.130;11.602;2023-07-09T03:33:10;10.73;;;9.73;;
37937;SDS011;23763;48.130;11.602;2023-07-09T03:35:36;10.45;;;9.57;;
37937;SDS011;23763;48.130;11.602;2023-07-09T03:38:03;10.68;;;9.68;;
37937;SDS011;23763;48.130;11.602;2023-07-09T03:40:29;10.02;;;8.82;;
37937;SDS011;23763;48.130;11.602;2023-07-09T03:42:55;10.10;;;9.20;;
37937;SDS011;23763;48.130;11.602;2023-07-09T03:45:20;10.52;;;9.23;;
37937;SDS011;23763;48.130;11.602;2023-07-09T03:47:46;10.07;;;9.18;;
37937;SDS011;23763;48.130;11.602;2023-07-09T03:50:12;10.52;;;9.27;;
37937;SDS011;23763;48.130;11.602;2023-07-09T03:52:37;10.50;;;9.60;;
37937;SDS011;23763;48.130;11.602;2023-07-09T03:55:03;10.10;;;9.07;;
37937;SDS011;23763;48.130;11.602;2023-07-09T03:57:29;11.27;;;9.13;;
37937;SDS011;23763;48.130;11.602;2023-07-09T03:59:55;10.70;;;9.60;;
37937;SDS011;23763;48.130;11.602;2023-07-09T04:02:21;9.48;;;8.70;;
37937;SDS011;23763;48.130;11.602;2023-07-09T04:04:47;10.30;;;9.30;;
37937;SDS011;23763;48.130;11.602;2023-07-09T04:07:12;10.40;;;9.50;;
37937;SDS011;23763;48.130;11.602;2023-07-09T04:09:38;10.57;;;9.52;;
37937;SDS011;23763;48.130;11.602;2023-07-09T04:12:04;9.95;;;9.05;;
37937;SDS011;23763;48.130;11.602;2023-07-09T04:14:30;9.77;;;8.90;;
37937;SDS011;23763;48.130;11.602;2023-07-09T04:16:56;10.02;;;9.13;;
37937;SDS011;23763;48.130;11.602;2023-07-09T04:19:22;9.85;;;8.98;;
37937;SDS011;23763;48.130;11.602;2023-07-09T04:21:48;9.90;;;9.00;;
37937;SDS011;23763;48.130;11.602;2023-07-09T04:24:14;9.77;;;8.90;;
37937;SDS011;23763;48.130;11.602;2023-07-09T04:26:41;10.10;;;9.23;;
37937;SDS011;23763;48.130;11.602;2023-07-09T04:29:07;10.02;;;9.23;;
37937;SDS011;23763;48.130;11.602;2023-07-09T04:31:33;10.55;;;9.48;;
37937;SDS011;23763;48.130;11.602;2023-07-09T04:33:58;10.20;;;9.20;;
37937;SDS011;23763;48.130;11.602;2023-07-09T04:36:24;10.00;;;9.20;;
37937;SDS011;23763;48.130;11.602;2023-07-09T04:38:51;10.05;;;9.15;;
37937;SDS011;23763;48.130;11.602;2023-07-09T04:41:16;10.23;;;8.93;;
37937;SDS011;23763;48.130;11.602;2023-07-09T04:43:44;10.48;;;9.43;;
37937;SDS011;23763;48.130;11.602;2023-07-09T04:46:10;9.93;;;9.00;;
37937;SDS011;23763;48.130;11.602;2023-07-09T04:48:35;9.63;;;8.73;;
37937;SDS011;23763;48.130;11.602;2023-07-09T04:51:01;9.50;;;8.70;;
37937;SDS011;23763;48.130;11.602;2023-07-09T04:53:27;9.68;;;8.77;;
37937;SDS011;23763;48.130;11.602;2023-07-09T04:55:52;9.70;;;8.90;;
37937;SDS011;23763;48.130;11.602;2023-07-09T04:58:18;9.98;;;9.07;;
37937;SDS011;23763;48.130;11.602;2023-07-09T05:00:44;10.23;;;9.23;;
37937;SDS011;23763;48.130;11.602;2023-07-09T05:03:10;10.38;;;9.25;;
37937;SDS011;23763;48.130;11.602;2023-07-09T05:05:41;9.77;;;9.00;;
37937;SDS011;23763;48.130;11.602;2023-07-09T05:08:08;9.88;;;8.98;;
37937;SDS011;23763;48.130;11.602;2023-07-09T05:10:33;9.82;;;8.85;;
37937;SDS011;23763;48.130;11.602;2023-07-09T05:12:59;9.40;;;8.68;;
37937;SDS011;23763;48.130;11.602;2023-07-09T05:15:24;10.52;;;8.52;;
37937;SDS011;23763;48.130;11.602;2023-07-09T05:17:50;9.75;;;8.75;;
37937;SDS011;23763;48.130;11.602;2023-07-09T05:20:16;9.98;;;9.07;;
37937;SDS011;23763;48.130;11.602;2023-07-09T05:22:42;9.52;;;8.73;;
37937;SDS011;23763;48.130;11.602;2023-07-09T05:25:08;9.50;;;8.70;;
37937;SDS011;23763;48.130;11.602;2023-07-09T05:27:33;9.88;;;8.93;;
37937;SDS011;23763;48.130;11.602;2023-07-09T05:29:59;9.15;;;8.35;;
37937;SDS011;23763;48.130;11.602;2023-07-09T05:32:25;10.25;;;8.55;;
37937;SDS011;23763;48.130;11.602;2023-07-09T05:34:51;9.23;;;8.32;;
37937;SDS011;23763;48.130;11.602;2023-07-09T05:37:16;9.45;;;8.60;;
37937;SDS011;23763;48.130;11.602;2023-07-09T05:39:42;9.65;;;8.65;;
37937;SDS011;23763;48.130;11.602;2023-07-09T05:42:07;9.07;;;8.13;;
37937;SDS011;23763;48.130;11.602;2023-07-09T05:44:33;10.23;;;8.60;;
37937;SDS011;23763;48.130;11.602;2023-07-09T05:46:58;9.32;;;8.27;;
37937;SDS011;23763;48.130;11.602;2023-07-09T05:49:24;9.60;;;8.80;;
37937;SDS011;23763;48.130;11.602;2023-07-09T05:51:50;9.57;;;8.75;;
37937;SDS011;23763;48.130;11.602;2023-07-09T05:54:15;9.32;;;8.52;;
37937;SDS011;23763;48.130;11.602;2023-07-09T05:56:41;9.45;;;8.65;;
37937;SDS011;23763;48.130;11.602;2023-07-09T05:59:06;10.25;;;9.02;;
37937;SDS011;23763;48.130;11.602;2023-07-09T06:01:32;8.77;;;8.18;;
37937;SDS011;23763;48.130;11.602;2023-07-09T06:03:58;8.85;;;7.95;;
37937;SDS011;23763;48.130;11.602;2023-07-09T06:06:24;9.02;;;8.30;;
37937;SDS011;23763;48.130;11.602;2023-07-09T06:08:51;8.63;;;7.82;;
37937;SDS011;23763;48.130;11.602;2023-07-09T06:11:17;8.52;;;7.82;;
37937;SDS011;23763;48.130;11.602;2023-07-09T06:13:43;9.32;;;8.52;;
37937;SDS011;23763;48.130;11.602;2023-07-09T06:16:09;10.15;;;8.95;;
37937;SDS011;23763;48.130;11.602;2023-07-09T06:18:34;8.88;;;8.07;;
37937;SDS011;23763;48.130;11.602;2023-07-09T06:21:00;11.50;;;8.30;;
37937;SDS011;23763;48.130;11.602;2023-07-09T06:23:27;9.55;;;8.75;;
37937;SDS011;23763;48.130;11.602;2023-07-09T06:25:53;9.27;;;8.40;;
37937;SDS011;23763;48.130;11.602;2023-07-09T06:28:20;9.48;;;8.77;;
37937;SDS011;23763;48.130;11.602;2023-07-09T06:30:48;10.40;;;9.45;;
37937;SDS011;23763;48.130;11.602;2023-07-09T06:33:14;10.05;;;9.20;;
37937;SDS011;23763;48.130;11.602;2023-07-09T06:35:51;9.40;;;8.63;;
37937;SDS011;23763;48.130;11.602;2023-07-09T06:38:19;9.02;;;8.32;;
37937;SDS011;23763;48.130;11.602;2023-07-09T06:40:44;9.32;;;8.63;;
37937;SDS011;23763;48.130;11.602;2023-07-09T06:43:11;9.95;;;9.15;;
37937;SDS011;23763;48.130;11.602;2023-07-09T06:45:37;9.18;;;8.20;;
37937;SDS011;23763;48.130;11.602;2023-07-09T06:48:02;8.52;;;7.93;;
37937;SDS011;23763;48.130;11.602;2023-07-09T06:50:29;9.35;;;8.55;;
37937;SDS011;23763;48.130;11.602;2023-07-09T06:52:57;9.23;;;8.38;;
37937;SDS011;23763;48.130;11.602;2023-07-09T06:55:23;8.50;;;7.85;;
37937;SDS011;23763;48.130;11.602;2023-07-09T06:57:48;9.23;;;8.57;;
37937;SDS011;23763;48.130;11.602;2023-07-09T07:00:14;10.07;;;8.40;;
37937;SDS011;23763;48.130;11.602;2023-07-09T07:02:40;8.73;;;8.05;;
37937;SDS011;23763;48.130;11.602;2023-07-09T07:05:06;9.02;;;8.25;;
37937;SDS011;23763;48.130;11.602;2023-07-09T07:07:31;9.10;;;8.18;;
37937;SDS011;23763;48.130;11.602;2023-07-09T07:09:57;8.95;;;8.23;;
37937;SDS011;23763;48.130;11.602;2023-07-09T07:12:24;9.57;;;8.77;;
37937;SDS011;23763;48.130;11.602;2023-07-09T07:14:51;8.40;;;7.80;;
37937;SDS011;23763;48.130;11.602;2023-07-09T07:17:17;8.45;;;7.85;;
37937;SDS011;23763;48.130;11.602;2023-07-09T07:19:43;8.43;;;7.82;;
37937;SDS011;23763;48.130;11.602;2023-07-09T07:22:09;8.95;;;8.15;;
37937;SDS011;23763;48.130;11.602;2023-07-09T07:24:34;9.27;;;8.40;;
37937;SDS011;23763;48.130;11.602;2023-07-09T07:27:00;9.60;;;8.75;;
37937;SDS011;23763;48.130;11.602;2023-07-09T07:29:25;9.50;;;8.77;;
37937;SDS011;23763;48.130;11.602;2023-07-09T07:31:51;9.68;;;8.90;;
37937;SDS011;23763;48.130;11.602;2023-07-09T07:34:16;8.73;;;8.10;;
37937;SDS011;23763;48.130;11.602;2023-07-09T07:36:42;10.05;;;9.15;;
37937;SDS011;23763;48.130;11.602;2023-07-09T07:39:08;9.02;;;8.20;;
37937;SDS011;23763;48.130;11.602;2023-07-09T07:41:33;10.07;;;9.18;;
37937;SDS011;23763;48.130;11.602;2023-07-09T07:43:59;9.77;;;8.85;;
37937;SDS011;23763;48.130;11.602;2023-07-09T07:46:24;8.15;;;7.65;;
37937;SDS011;23763;48.130;11.602;2023-07-09T07:48:50;8.77;;;8.07;;
37937;SDS011;23763;48.130;11.602;2023-07-09T07:51:15;10.05;;;9.25;;
37937;SDS011;23763;48.130;11.602;2023-07-09T07:53:41;9.73;;;8.90;;
37937;SDS011;23763;48.130;11.602;2023-07-09T07:56:07;10.05;;;9.15;;
37937;SDS011;23763;48.130;11.602;2023-07-09T07:58:33;9.23;;;8.43;;
37937;SDS011;23763;48.130;11.602;2023-07-09T08:00:59;9.10;;;8.40;;
37937;SDS011;23763;48.130;11.602;2023-07-09T08:03:25;9.50;;;8.80;;
37937;SDS011;23763;48.130;11.602;2023-07-09T08:05:51;9.32;;;8.73;;
37937;SDS011;23763;48.130;11.602;2023-07-09T08:08:17;10.52;;;9.63;;
37937;SDS011;23763;48.130;11.602;2023-07-09T08:10:43;9.82;;;9.10;;
37937;SDS011;23763;48.130;11.602;2023-07-09T08:13:09;10.15;;;9.25;;
37937;SDS011;23763;48.130;11.602;2023-07-09T08:15:35;11.50;;;9.82;;
37937;SDS011;23763;48.130;11.602;2023-07-09T08:18:01;9.32;;;8.65;;
37937;SDS011;23763;48.130;11.602;2023-07-09T08:20:26;10.32;;;9.55;;
37937;SDS011;23763;48.130;11.602;2023-07-09T08:22:55;9.77;;;9.07;;
37937;SDS011;23763;48.130;11.602;2023-07-09T08:25:20;10.35;;;9.43;;
37937;SDS011;23763;48.130;11.602;2023-07-09T08:27:46;10.77;;;10.10;;
37937;SDS011;23763;48.130;11.602;2023-07-09T08:30:12;10.02;;;9.25;;
37937;SDS011;23763;48.130;11.602;2023-07-09T08:32:37;10.40;;;9.50;;
37937;SDS011;23763;48.130;11.602;2023-07-09T08:35:03;10.05;;;9.25;;
37937;SDS011;23763;48.130;11.602;2023-07-09T08:37:29;9.60;;;8.80;;
37937;SDS011;23763;48.130;11.602;2023-07-09T08:39:55;10.10;;;9.40;;
37937;SDS011;23763;48.130;11.602;2023-07-09T08:42:23;10.40;;;9.70;;
37937;SDS011;23763;48.130;11.602;2023-07-09T08:50:13;9.75;;;9.05;;
37937;SDS011;23763;48.130;11.602;2023-07-09T08:52:43;9.73;;;8.82;;
37937;SDS011;23763;48.130;11.602;2023-07-09T08:57:40;10.05;;;9.35;;
37937;SDS011;23763;48.130;11.602;2023-07-09T09:00:27;10.30;;;9.38;;
37937;SDS011;23763;48.130;11.602;2023-07-09T09:03:22;9.40;;;8.57;;
37937;SDS011;23763;48.130;11.602;2023-07-09T09:05:56;9.23;;;8.57;;
37937;SDS011;23763;48.130;11.602;2023-07-09T09:08:44;8.15;;;7.65;;
37937;SDS011;23763;48.130;11.602;2023-07-09T09:16:46;9.05;;;8.45;;
37937;SDS011;23763;48.130;11.602;2023-07-09T09:19:22;8.75;;;8.07;;
37937;SDS011;23763;48.130;11.602;2023-07-09T09:21:47;9.45;;;8.65;;
37937;SDS011;23763;48.130;11.602;2023-07-09T09:24:26;9.73;;;8.95;;
37937;SDS011;23763;48.130;11.602;2023-07-09T09:26:57;8.35;;;7.70;;
37937;SDS011;23763;48.130;11.602;2023-07-09T09:29:24;10.70;;;8.32;;
37937;SDS011;23763;48.130;11.602;2023-07-09T09:31:51;8.50;;;7.80;;
37937;SDS011;23763;48.130;11.602;2023-07-09T09:34:26;9.00;;;8.10;;
37937;SDS011;23763;48.130;11.602;2023-07-09T09:36:54;8.95;;;8.25;;
37937;SDS011;23763;48.130;11.602;2023-07-09T09:39:23;8.05;;;7.35;;
37937;SDS011;23763;48.130;11.602;2023-07-09T09:41:51;8.55;;;7.63;;
37937;SDS011;23763;48.130;11.602;2023-07-09T09:44:24;9.15;;;8.07;;
37937;SDS011;23763;48.130;11.602;2023-07-09T09:46:51;8.57;;;7.88;;
37937;SDS011;23763;48.130;11.602;2023-07-09T09:49:17;9.25;;;8.38;;
37937;SDS011;23763;48.130;11.602;2023-07-09T09:51:44;10.15;;;8.82;;
37937;SDS011;23763;48.130;11.602;2023-07-09T09:54:14;9.25;;;8.55;;
37937;SDS011;23763;48.130;11.602;2023-07-09T09:56:52;9.07;;;8.27;;
37937;SDS011;23763;48.130;11.602;2023-07-09T09:59:20;9.18;;;8.48;;
37937;SDS011;23763;48.130;11.602;2023-07-09T10:01:59;9.18;;;8.32;;
37937;SDS011;23763;48.130;11.602;2023-07-09T10:04:27;8.23;;;7.55;;
37937;SDS011;23763;48.130;11.602;2023-07-09T10:06:58;8.30;;;7.70;;
37937;SDS011;23763;48.130;11.602;2023-07-09T10:12:43;8.70;;;7.85;;
37937;SDS011;23763;48.130;11.602;2023-07-09T10:15:59;8.75;;;8.02;;
37937;SDS011;23763;48.130;11.602;2023-07-09T10:20:51;9.30;;;8.40;;
37937;SDS011;23763;48.130;11.602;2023-07-09T10:23:27;9.50;;;8.05;;
37937;SDS011;23763;48.130;11.602;2023-07-09T10:39:29;8.65;;;7.95;;
37937;SDS011;23763;48.130;11.602;2023-07-09T10:42:00;8.52;;;7.93;;
37937;SDS011;23763;48.130;11.602;2023-07-09T10:44:34;9.30;;;8.35;;
37937;SDS011;23763;48.130;11.602;2023-07-09T10:47:04;9.40;;;8.48;;
37937;SDS011;23763;48.130;11.602;2023-07-09T10:49:36;8.85;;;8.10;;
37937;SDS011;23763;48.130;11.602;2023-07-09T10:52:06;8.73;;;8.02;;
37937;SDS011;23763;48.130;11.602;2023-07-09T10:54:42;8.45;;;7.85;;
37937;SDS011;23763;48.130;11.602;2023-07-09T10:57:16;8.73;;;7.93;;
37937;SDS011;23763;48.130;11.602;2023-07-09T10:59:53;9.45;;;8.50;;
37937;SDS011;23763;48.130;11.602;2023-07-09T11:02:21;9.23;;;8.40;;
37937;SDS011;23763;48.130;11.602;2023-07-09T11:04:55;10.00;;;9.02;;
37937;SDS011;23763;48.130;11.602;2023-07-09T11:09:51;9.30;;;8.50;;
37937;SDS011;23763;48.130;11.602;2023-07-09T11:12:23;8.40;;;7.72;;
37937;SDS011;23763;48.130;11.602;2023-07-09T11:14:59;9.35;;;8.60;;
37937;SDS011;23763;48.130;11.602;2023-07-09T11:17:29;9.95;;;9.15;;
37937;SDS011;23763;48.130;11.602;2023-07-09T11:19:58;9.93;;;9.00;;
37937;SDS011;23763;48.130;11.602;2023-07-09T11:22:38;11.82;;;8.75;;
37937;SDS011;23763;48.130;11.602;2023-07-09T11:27:48;12.23;;;8.50;;
37937;SDS011;23763;48.130;11.602;2023-07-09T11:30:20;9.48;;;8.63;;
37937;SDS011;23763;48.130;11.602;2023-07-09T11:32:52;9.80;;;8.70;;
37937;SDS011;23763;48.130;11.602;2023-07-09T11:35:29;9.32;;;8.50;;
37937;SDS011;23763;48.130;11.602;2023-07-09T11:38:21;8.82;;;8.15;;
37937;SDS011;23763;48.130;11.602;2023-07-09T11:40:49;9.73;;;8.25;;
37937;SDS011;23763;48.130;11.602;2023-07-09T11:43:26;9.52;;;8.63;;
37937;SDS011;23763;48.130;11.602;2023-07-09T11:46:21;8.73;;;7.95;;
37937;SDS011;23763;48.130;11.602;2023-07-09T11:48:51;9.77;;;8.82;;
37937;SDS011;23763;48.130;11.602;2023-07-09T11:51:24;9.77;;;8.93;;
37937;SDS011;23763;48.130;11.602;2023-07-09T11:54:07;8.70;;;7.90;;
37937;SDS011;23763;48.130;11.602;2023-07-09T11:56:38;9.20;;;8.50;;
37937;SDS011;23763;48.130;11.602;2023-07-09T11:59:04;10.02;;;9.02;;
37937;SDS011;23763;48.130;11.602;2023-07-09T12:01:51;9.15;;;8.35;;
37937;SDS011;23763;48.130;11.602;2023-07-09T12:04:19;9.27;;;8.25;;
37937;SDS011;23763;48.130;11.602;2023-07-09T12:06:48;9.00;;;8.05;;
37937;SDS011;23763;48.130;11.602;2023-07-09T12:09:19;8.98;;;8.07;;
37937;SDS011;23763;48.130;11.602;2023-07-09T12:11:46;9.23;;;8.52;;
37937;SDS011;23763;48.130;11.602;2023-07-09T12:14:15;9.85;;;9.05;;
37937;SDS011;23763;48.130;11.602;2023-07-09T12:16:43;9.30;;;8.40;;
37937;SDS011;23763;48.130;11.602;2023-07-09T12:19:16;8.13;;;7.53;;
37937;SDS011;23763;48.130;11.602;2023-07-09T12:21:44;9.07;;;8.18;;
37937;SDS011;23763;48.130;11.602;2023-07-09T12:26:56;8.68;;;7.97;;
37937;SDS011;23763;48.130;11.602;2023-07-09T12:29:27;8.93;;;7.70;;
37937;SDS011;23763;48.130;11.602;2023-07-09T12:31:58;8.63;;;8.02;;
37937;SDS011;23763;48.130;11.602;2023-07-09T12:34:30;8.77;;;7.90;;
37937;SDS011;23763;48.130;11.602;2023-07-09T12:36:56;8.98;;;8.15;;
37937;SDS011;23763;48.130;11.602;2023-07-09T12:39:26;9.38;;;8.57;;
37937;SDS011;23763;48.130;11.602;2023-07-09T12:41:54;9.73;;;7.95;;
37937;SDS011;23763;48.130;11.602;2023-07-09T12:44:22;9.10;;;8.30;;
37937;SDS011;23763;48.130;11.602;2023-07-09T12:46:49;9.95;;;8.80;;
37937;SDS011;23763;48.130;11.602;2023-07-09T12:49:23;8.73;;;8.13;;
37937;SDS011;23763;48.130;11.602;2023-07-09T12:51:53;9.65;;;8.80;;
37937;SDS011;23763;48.130;11.602;2023-07-09T12:54:23;8.60;;;7.90;;
37937;SDS011;23763;48.130;11.602;2023-07-09T12:56:52;8.90;;;8.10;;
37937;SDS011;23763;48.130;11.602;2023-07-09T12:59:20;8.85;;;7.97;;
37937;SDS011;23763;48.130;11.602;2023-07-09T13:02:12;8.82;;;8.13;;
37937;SDS011;23763;48.130;11.602;2023-07-09T13:04:33;8.75;;;8.05;;
37937;SDS011;23763;48.130;11.602;2023-07-09T13:07:02;8.75;;;8.10;;
37937;SDS011;23763;48.130;11.602;2023-07-09T13:09:29;8.90;;;8.10;;
37937;SDS011;23763;48.130;11.602;2023-07-09T13:11:55;8.25;;;7.65;;
37937;SDS011;23763;48.130;11.602;2023-07-09T13:14:26;8.30;;;7.68;;
37937;SDS011;23763;48.130;11.602;2023-07-09T13:17:01;8.57;;;7.80;;
37937;SDS011;23763;48.130;11.602;2023-07-09T13:19:31;8.77;;;8.07;;
37937;SDS011;23763;48.130;11.602;2023-07-09T13:21:57;9.23;;;8.43;;
37937;SDS011;23763;48.130;11.602;2023-07-09T13:24:23;9.77;;;8.85;;
37937;SDS011;23763;48.130;11.602;2023-07-09T13:26:52;9.57;;;8.77;;
37937;SDS011;23763;48.130;11.602;2023-07-09T13:29:19;9.57;;;8.45;;
37937;SDS011;23763;48.130;11.602;2023-07-09T13:31:45;9.70;;;8.30;;
37937;SDS011;23763;48.130;11.602;2023-07-09T13:34:19;8.82;;;8.13;;
37937;SDS011;23763;48.130;11.602;2023-07-09T13:36:47;9.43;;;8.65;;
37937;SDS011;23763;48.130;11.602;2023-07-09T13:39:14;8.20;;;7.57;;
37937;SDS011;23763;48.130;11.602;2023-07-09T13:41:44;9.05;;;8.25;;
37937;SDS011;23763;48.130;11.602;2023-07-09T13:44:12;8.48;;;7.85;;
37937;SDS011;23763;48.130;11.602;2023-07-09T13:46:40;9.27;;;8.57;;
37937;SDS011;23763;48.130;11.602;2023-07-09T13:49:18;8.98;;;8.10;;
37937;SDS011;23763;48.130;11.602;2023-07-09T13:51:45;9.05;;;8.32;;
37937;SDS011;23763;48.130;11.602;2023-07-09T13:54:20;9.23;;;8.50;;
37937;SDS011;23763;48.130;11.602;2023-07-09T13:56:48;9.00;;;8.15;;
37937;SDS011;23763;48.130;11.602;2023-07-09T13:59:19;8.63;;;8.02;;
37937;SDS011;23763;48.130;11.602;2023-07-09T14:01:49;9.98;;;7.93;;
37937;SDS011;23763;48.130;11.602;2023-07-09T14:04:17;8.50;;;7.80;;
37937;SDS011;23763;48.130;11.602;2023-07-09T14:06:43;9.23;;;8.52;;
37937;SDS011;23763;48.130;11.602;2023-07-09T14:09:11;9.55;;;8.30;;
37937;SDS011;23763;48.130;11.602;2023-07-09T14:14:23;9.63;;;8.68;;
37937;SDS011;23763;48.130;11.602;2023-07-09T14:16:55;8.27;;;7.57;;
37937;SDS011;23763;48.130;11.602;2023-07-09T14:19:22;8.98;;;8.18;;
37937;SDS011;23763;48.130;11.602;2023-07-09T14:21:49;9.15;;;8.25;;
37937;SDS011;23763;48.130;11.602;2023-07-09T14:26:48;8.57;;;7.78;;
37937;SDS011;23763;48.130;11.602;2023-07-09T14:29:15;10.07;;;8.27;;
37937;SDS011;23763;48.130;11.602;2023-07-09T14:31:41;9.25;;;8.45;;
37937;SDS011;23763;48.130;11.602;2023-07-09T14:34:29;9.25;;;8.60;;
37937;SDS011;23763;48.130;11.602;2023-07-09T14:36:55;9.13;;;8.32;;
37937;SDS011;23763;48.130;11.602;2023-07-09T14:39:22;8.98;;;8.27;;
37937;SDS011;23763;48.130;11.602;2023-07-09T14:41:48;9.45;;;8.70;;
37937;SDS011;23763;48.130;11.602;2023-07-09T14:44:24;8.15;;;7.47;;
37937;SDS011;23763;48.130;11.602;2023-07-09T14:46:51;9.15;;;7.43;;
37937;SDS011;23763;48.130;11.602;2023-07-09T14:49:19;8.27;;;7.57;;
37937;SDS011;23763;48.130;11.602;2023-07-09T14:51:45;8.57;;;7.88;;
37937;SDS011;23763;48.130;11.602;2023-07-09T14:56:49;8.70;;;7.90;;
37937;SDS011;23763;48.130;11.602;2023-07-09T14:59:15;9.77;;;8.30;;
37937;SDS011;23763;48.130;11.602;2023-07-09T15:01:41;9.68;;;8.88;;
37937;SDS011;23763;48.130;11.602;2023-07-09T15:04:22;9.45;;;8.55;;
37937;SDS011;23763;48.130;11.602;2023-07-09T15:06:52;11.35;;;8.77;;
37937;SDS011;23763;48.130;11.602;2023-07-09T15:09:19;9.13;;;8.30;;
37937;SDS011;23763;48.130;11.602;2023-07-09T15:11:51;9.50;;;8.70;;
37937;SDS011;23763;48.130;11.602;2023-07-09T15:14:18;9.27;;;8.57;;
37937;SDS011;23763;48.130;11.602;2023-07-09T15:16:45;9.10;;;8.40;;
37937;SDS011;23763;48.130;11.602;2023-07-09T15:19:13;9.02;;;8.15;;
37937;SDS011;23763;48.130;11.602;2023-07-09T15:21:39;9.02;;;8.32;;
37937;SDS011;23763;48.130;11.602;2023-07-09T15:24:06;8.48;;;7.72;;
37937;SDS011;23763;48.130;11.602;2023-07-09T15:26:41;11.63;;;8.35;;